createdAt,value
2016-12-22T00:00:54.076Z,0
2016-12-22T00:01:54.081Z,0
2016-12-22T00:02:53.780Z,0
2016-12-22T00:03:54.424Z,0
2016-12-22T00:04:54.120Z,0
2016-12-22T00:05:53.836Z,0
2016-12-22T00:06:54.464Z,0
2016-12-22T00:07:54.163Z,0
2016-12-22T00:08:54.159Z,0
2016-12-22T00:09:54.489Z,0
2016-12-22T00:11:54.198Z,0
2016-12-22T00:12:54.547Z,0
2016-12-22T00:13:54.561Z,0
2016-12-22T00:14:54.236Z,0
2016-12-22T00:15:54.560Z,0
2016-12-22T00:16:54.575Z,0
2016-12-22T00:17:54.275Z,0
2016-12-22T00:18:53.966Z,0
2016-12-22T00:19:54.288Z,0
2016-12-22T00:20:54.303Z,0
2016-12-22T00:21:54.633Z,0
2016-12-22T00:22:54.327Z,0
2016-12-22T00:23:54.655Z,0
2016-12-22T00:24:54.980Z,0
2016-12-22T00:25:54.997Z,0
2016-12-22T00:26:54.376Z,0
2016-12-22T00:27:54.700Z,0
2016-12-22T00:28:55.026Z,0
2016-12-22T00:29:54.722Z,0
2016-12-22T00:30:54.735Z,0
2016-12-22T00:31:54.744Z,0
2016-12-22T00:32:54.441Z,0
2016-12-22T00:33:55.097Z,0
2016-12-22T00:34:54.800Z,0
2016-12-22T00:35:54.174Z,0
2016-12-22T00:36:54.169Z,0
2016-12-22T00:37:54.497Z,0
2016-12-22T00:38:54.203Z,0
2016-12-22T00:39:54.838Z,0
2016-12-22T00:40:54.850Z,0
2016-12-22T00:41:54.556Z,0
2016-12-22T00:42:54.869Z,0
2016-12-22T00:43:55.206Z,0
2016-12-22T00:44:54.578Z,0
2016-12-22T00:45:54.274Z,0
2016-12-22T00:46:54.915Z,0
2016-12-22T00:47:54.612Z,0
2016-12-22T00:48:55.250Z,0
2016-12-22T00:49:55.269Z,0
2016-12-22T00:50:54.333Z,0
2016-12-22T00:51:54.970Z,0
2016-12-22T00:52:54.705Z,0
2016-12-22T00:53:55.310Z,0
2016-12-22T00:54:54.383Z,0
2016-12-22T00:55:55.032Z,0
2016-12-22T00:56:55.353Z,0
2016-12-22T00:57:55.359Z,0
2016-12-22T00:58:54.739Z,0
2016-12-22T00:59:54.772Z,0
2016-12-22T01:00:55.074Z,0
2016-12-22T01:01:55.408Z,0
2016-12-22T01:02:54.782Z,0
2016-12-22T01:03:54.792Z,0
2016-12-22T01:04:54.495Z,0
2016-12-22T01:05:54.825Z,0
2016-12-22T01:06:55.462Z,0
2016-12-22T01:07:55.157Z,0
2016-12-22T01:08:54.858Z,0
2016-12-22T01:09:54.866Z,0
2016-12-22T01:10:54.558Z,0
2016-12-22T01:11:55.214Z,0
2016-12-22T01:12:55.244Z,0
2016-12-22T01:13:54.591Z,0
2016-12-22T01:14:54.925Z,0
2016-12-22T01:15:55.258Z,0
2016-12-22T01:16:54.955Z,0
2016-12-22T01:17:54.651Z,0
2016-12-22T01:18:55.284Z,0
2016-12-22T01:19:54.992Z,0
2016-12-22T01:20:54.988Z,0
2016-12-22T01:21:55.003Z,0
2016-12-22T01:22:55.013Z,0
2016-12-22T01:23:55.653Z,0
2016-12-22T01:24:54.711Z,0
2016-12-22T01:25:55.681Z,0
2016-12-22T01:26:55.055Z,0
2016-12-22T01:27:55.383Z,0
2016-12-22T01:28:55.394Z,0
2016-12-22T01:29:55.453Z,0
2016-12-22T01:30:55.101Z,0
2016-12-22T01:31:55.429Z,0
2016-12-22T01:32:55.123Z,0
2016-12-22T01:33:55.146Z,0
2016-12-22T01:34:55.475Z,0
2016-12-22T01:35:54.841Z,0
2016-12-22T01:36:55.485Z,0
2016-12-22T01:37:55.496Z,0
2016-12-22T01:38:55.822Z,0
2016-12-22T01:39:55.201Z,0
2016-12-22T01:40:55.247Z,0
2016-12-22T01:41:55.228Z,0
2016-12-22T01:42:55.869Z,0
2016-12-22T01:43:55.246Z,0
2016-12-22T01:44:55.274Z,0
2016-12-22T01:45:55.285Z,0
2016-12-22T01:46:55.597Z,0
2016-12-22T01:47:55.608Z,0
2016-12-22T01:48:55.622Z,0
2016-12-22T01:49:55.000Z,0
2016-12-22T01:50:55.955Z,0
2016-12-22T01:51:55.977Z,0
2016-12-22T01:52:55.352Z,0
2016-12-22T01:53:55.359Z,0
2016-12-22T01:54:56.015Z,0
2016-12-22T01:55:55.693Z,0
2016-12-22T01:56:55.079Z,0
2016-12-22T01:57:56.036Z,0
2016-12-22T01:58:55.735Z,0
2016-12-22T01:59:55.132Z,0
2016-12-22T02:00:55.441Z,0
2016-12-22T02:01:55.768Z,0
2016-12-22T02:02:55.147Z,0
2016-12-22T02:03:55.789Z,0
2016-12-22T02:04:55.798Z,0
2016-12-22T02:05:56.134Z,0
2016-12-22T02:06:55.841Z,0
2016-12-22T02:07:55.836Z,0
2016-12-22T02:08:55.531Z,0
2016-12-22T02:09:55.540Z,0
2016-12-22T02:10:55.552Z,0
2016-12-22T02:11:56.198Z,0
2016-12-22T02:12:55.890Z,0
2016-12-22T02:13:56.220Z,0
2016-12-22T02:14:55.279Z,0
2016-12-22T02:15:56.238Z,0
2016-12-22T02:16:55.616Z,0
2016-12-22T02:17:55.644Z,0
2016-12-22T02:18:55.957Z,0
2016-12-22T02:19:55.966Z,0
2016-12-22T02:20:56.294Z,0
2016-12-22T02:21:56.001Z,0
2016-12-22T02:22:56.004Z,0
2016-12-22T02:23:55.699Z,0
2016-12-22T02:24:55.705Z,0
2016-12-22T02:25:55.730Z,0
2016-12-22T02:26:56.363Z,0
2016-12-22T02:27:56.095Z,0
2016-12-22T02:28:55.771Z,0
2016-12-22T02:29:55.765Z,0
2016-12-22T02:30:56.408Z,0
2016-12-22T02:31:56.110Z,0
2016-12-22T02:32:56.113Z,0
2016-12-22T02:33:56.123Z,0
2016-12-22T02:34:55.510Z,0
2016-12-22T02:35:56.148Z,0
2016-12-22T02:36:56.156Z,0
2016-12-22T02:37:55.858Z,0
2016-12-22T02:38:55.549Z,0
2016-12-22T02:39:56.194Z,0
2016-12-22T02:40:56.205Z,0
2016-12-22T02:41:55.905Z,0
2016-12-22T02:42:56.226Z,0
2016-12-22T02:43:55.934Z,0
2016-12-22T02:44:55.936Z,0
2016-12-22T02:45:56.280Z,0
2016-12-22T02:46:55.958Z,0
2016-12-22T02:47:55.970Z,0
2016-12-22T02:48:55.975Z,0
2016-12-22T02:49:55.990Z,0
2016-12-22T02:50:56.002Z,0
2016-12-22T02:51:56.335Z,0
2016-12-22T02:52:56.390Z,0
2016-12-22T02:53:56.351Z,0
2016-12-22T02:54:56.684Z,0
2016-12-22T02:55:56.051Z,0
2016-12-22T02:56:56.076Z,0
2016-12-22T02:57:56.395Z,0
2016-12-22T02:58:56.099Z,0
2016-12-22T02:59:56.110Z,0
2016-12-22T03:00:56.115Z,0
2016-12-22T03:01:56.129Z,0
2016-12-22T03:02:56.466Z,0
2016-12-22T03:03:55.869Z,0
2016-12-22T03:04:55.855Z,0
2016-12-22T03:05:56.175Z,0
2016-12-22T03:06:56.497Z,0
2016-12-22T03:07:56.826Z,0
2016-12-22T03:08:56.202Z,0
2016-12-22T03:09:56.216Z,0
2016-12-22T03:10:56.541Z,0
2016-12-22T03:11:56.551Z,0
2016-12-22T03:12:56.252Z,0
2016-12-22T03:13:56.575Z,0
2016-12-22T03:14:56.274Z,0
2016-12-22T03:15:56.601Z,0
2016-12-22T03:16:56.615Z,0
2016-12-22T03:17:56.301Z,0
2016-12-22T03:18:56.315Z,0
2016-12-22T03:19:56.328Z,0
2016-12-22T03:20:56.025Z,0
2016-12-22T03:21:56.351Z,0
2016-12-22T03:22:56.356Z,0
2016-12-22T03:23:56.055Z,0
2016-12-22T03:24:56.383Z,0
2016-12-22T03:25:57.022Z,0
2016-12-22T03:26:56.402Z,0
2016-12-22T03:27:56.468Z,0
2016-12-22T03:28:56.420Z,0
2016-12-22T03:29:56.122Z,0
2016-12-22T03:30:56.445Z,0
2016-12-22T03:31:56.778Z,0
2016-12-22T03:32:56.470Z,0
2016-12-22T03:33:56.807Z,0
2016-12-22T03:34:56.291Z,0
2016-12-22T03:35:56.188Z,0
2016-12-22T03:36:57.150Z,0
2016-12-22T03:37:56.527Z,0
2016-12-22T03:38:56.855Z,0
2016-12-22T03:39:56.546Z,0
2016-12-22T03:40:56.555Z,0
2016-12-22T03:41:56.252Z,0
2016-12-22T03:42:57.214Z,0
2016-12-22T03:43:56.907Z,0
2016-12-22T03:44:56.287Z,0
2016-12-22T03:45:57.265Z,0
2016-12-22T03:46:56.957Z,0
2016-12-22T03:47:56.949Z,0
2016-12-22T03:48:56.971Z,0
2016-12-22T03:49:56.658Z,0
2016-12-22T03:50:56.981Z,0
2016-12-22T03:51:57.323Z,0
2016-12-22T03:52:56.379Z,0
2016-12-22T03:53:56.702Z,0
2016-12-22T03:54:56.717Z,0
2016-12-22T03:55:56.721Z,0
2016-12-22T03:56:57.051Z,0
2016-12-22T03:57:56.428Z,0
2016-12-22T03:58:56.756Z,0
2016-12-22T03:59:56.778Z,0
2016-12-22T04:00:57.123Z,0
2016-12-22T04:01:56.473Z,0
2016-12-22T04:02:56.804Z,0
2016-12-22T04:03:56.832Z,0
2016-12-22T04:04:57.141Z,0
2016-12-22T04:05:56.832Z,0
2016-12-22T04:06:56.848Z,0
2016-12-22T04:07:56.539Z,0
2016-12-22T04:08:57.187Z,0
2016-12-22T04:09:56.878Z,0
2016-12-22T04:10:56.900Z,0
2016-12-22T04:11:56.921Z,0
2016-12-22T04:12:57.227Z,0
2016-12-22T04:13:57.238Z,0
2016-12-22T04:14:56.938Z,0
2016-12-22T04:15:57.265Z,0
2016-12-22T04:16:56.956Z,0
2016-12-22T04:17:57.604Z,0
2016-12-22T04:18:56.665Z,0
2016-12-22T04:19:56.991Z,0
2016-12-22T04:20:57.333Z,0
2016-12-22T04:21:57.642Z,0
2016-12-22T04:22:57.040Z,0
2016-12-22T04:23:57.689Z,0
2016-12-22T04:24:57.046Z,0
2016-12-22T04:25:57.373Z,0
2016-12-22T04:26:57.070Z,0
2016-12-22T04:27:57.083Z,0
2016-12-22T04:28:57.093Z,0
2016-12-22T04:29:56.790Z,0
2016-12-22T04:30:57.109Z,0
2016-12-22T04:31:57.438Z,0
2016-12-22T04:32:57.137Z,0
2016-12-22T04:33:57.144Z,0
2016-12-22T04:34:57.497Z,0
2016-12-22T04:35:57.479Z,0
2016-12-22T04:36:56.861Z,0
2016-12-22T04:37:57.505Z,0
2016-12-22T04:38:57.515Z,0
2016-12-22T04:39:57.526Z,0
2016-12-22T04:40:57.544Z,0
2016-12-22T04:41:57.876Z,0
2016-12-22T04:42:57.877Z,0
2016-12-22T04:43:57.573Z,0
2016-12-22T04:44:57.896Z,0
2016-12-22T04:45:57.592Z,0
2016-12-22T04:46:57.288Z,0
2016-12-22T04:47:57.299Z,0
2016-12-22T04:48:57.309Z,0
2016-12-22T04:49:57.645Z,0
2016-12-22T04:50:57.017Z,0
2016-12-22T04:51:57.024Z,0
2016-12-22T04:52:58.007Z,0
2016-12-22T04:53:57.677Z,0
2016-12-22T04:54:57.720Z,0
2016-12-22T04:55:57.702Z,0
2016-12-22T04:56:57.712Z,0
2016-12-22T04:57:57.089Z,0
2016-12-22T04:58:57.738Z,0
2016-12-22T04:59:57.427Z,0
2016-12-22T05:00:58.072Z,0
2016-12-22T05:01:57.448Z,0
2016-12-22T05:02:57.778Z,0
2016-12-22T05:03:57.153Z,0
2016-12-22T05:04:57.482Z,0
2016-12-22T05:05:57.188Z,0
2016-12-22T05:06:57.500Z,0
2016-12-22T05:07:57.831Z,0
2016-12-22T05:08:57.538Z,0
2016-12-22T05:09:57.561Z,0
2016-12-22T05:10:57.903Z,0
2016-12-22T05:11:57.875Z,0
2016-12-22T05:12:57.911Z,0
2016-12-22T05:13:57.901Z,0
2016-12-22T05:14:57.953Z,0
2016-12-22T05:15:57.918Z,0
2016-12-22T05:16:57.929Z,0
2016-12-22T05:17:57.968Z,0
2016-12-22T05:18:57.647Z,0
2016-12-22T05:19:57.957Z,0
2016-12-22T05:20:57.339Z,0
2016-12-22T05:21:57.351Z,0
2016-12-22T05:22:57.993Z,0
2016-12-22T05:23:58.015Z,0
2016-12-22T05:24:57.701Z,0
2016-12-22T05:25:58.028Z,0
2016-12-22T05:26:57.721Z,0
2016-12-22T05:27:57.429Z,0
2016-12-22T05:28:58.059Z,0
2016-12-22T05:29:57.757Z,0
2016-12-22T05:30:57.765Z,0
2016-12-22T05:31:57.776Z,0
2016-12-22T05:32:58.132Z,0
2016-12-22T05:33:58.110Z,0
2016-12-22T05:34:58.120Z,0
2016-12-22T05:35:58.449Z,0
2016-12-22T05:36:58.141Z,0
2016-12-22T05:37:57.836Z,0
2016-12-22T05:38:57.852Z,0
2016-12-22T05:39:57.866Z,0
2016-12-22T05:40:57.588Z,0
2016-12-22T05:41:57.890Z,0
2016-12-22T05:42:58.217Z,0
2016-12-22T05:43:58.531Z,0
2016-12-22T05:44:57.600Z,0
2016-12-22T05:45:57.605Z,0
2016-12-22T05:46:57.934Z,0
2016-12-22T05:47:58.260Z,0
2016-12-22T05:48:57.957Z,0
2016-12-22T05:49:57.971Z,0
2016-12-22T05:50:58.293Z,0
2016-12-22T05:51:57.674Z,0
2016-12-22T05:52:57.686Z,0
2016-12-22T05:53:58.006Z,0
2016-12-22T05:54:58.334Z,0
2016-12-22T05:55:58.033Z,0
2016-12-22T05:56:58.668Z,0
2016-12-22T05:57:58.367Z,0
2016-12-22T05:58:58.059Z,0
2016-12-22T05:59:58.403Z,0
2016-12-22T06:00:58.710Z,0
2016-12-22T06:01:58.409Z,0
2016-12-22T06:02:58.101Z,0
2016-12-22T06:03:58.750Z,0
2016-12-22T06:04:58.437Z,0
2016-12-22T06:05:58.453Z,0
2016-12-22T06:06:58.470Z,0
2016-12-22T06:07:58.168Z,0
2016-12-22T06:08:58.483Z,0
2016-12-22T06:09:58.490Z,0
2016-12-22T06:10:58.180Z,0
2016-12-22T06:11:58.195Z,0
2016-12-22T06:12:58.206Z,0
2016-12-22T06:13:58.533Z,0
2016-12-22T06:14:58.547Z,0
2016-12-22T06:15:58.237Z,0
2016-12-22T06:16:58.243Z,0
2016-12-22T06:17:57.977Z,0
2016-12-22T06:18:58.280Z,0
2016-12-22T06:19:58.286Z,0
2016-12-22T06:20:58.650Z,0
2016-12-22T06:21:58.614Z,0
2016-12-22T06:22:58.943Z,0
2016-12-22T06:23:58.326Z,0
2016-12-22T06:24:58.651Z,0
2016-12-22T06:25:58.339Z,0
2016-12-22T06:26:58.036Z,0
2016-12-22T06:27:58.368Z,0
2016-12-22T06:28:58.374Z,0
2016-12-22T06:29:58.702Z,0
2016-12-22T06:30:58.711Z,0
2016-12-22T06:31:58.721Z,0
2016-12-22T06:32:58.416Z,0
2016-12-22T06:33:58.431Z,0
2016-12-22T06:34:59.075Z,4
2016-12-22T06:35:58.781Z,4
2016-12-22T06:36:58.145Z,0
2016-12-22T06:37:58.783Z,0
2016-12-22T06:38:58.478Z,4
2016-12-22T06:39:58.493Z,4
2016-12-22T06:40:58.505Z,4
2016-12-22T06:41:58.512Z,0
2016-12-22T06:42:58.206Z,4
2016-12-22T06:43:58.217Z,4
2016-12-22T06:44:58.546Z,8
2016-12-22T06:45:58.238Z,4
2016-12-22T06:46:58.903Z,8
2016-12-22T06:47:59.207Z,8
2016-12-22T06:48:58.272Z,8
2016-12-22T06:49:58.925Z,8
2016-12-22T06:50:58.293Z,12
2016-12-22T06:51:58.616Z,8
2016-12-22T06:52:58.961Z,8
2016-12-22T06:53:58.639Z,12
2016-12-22T06:54:58.333Z,12
2016-12-22T06:55:59.304Z,12
2016-12-22T06:56:58.994Z,16
2016-12-22T06:57:59.311Z,16
2016-12-22T06:58:59.009Z,16
2016-12-22T06:59:59.025Z,20
2016-12-22T07:00:59.032Z,20
2016-12-22T07:01:58.409Z,20
2016-12-22T07:02:59.054Z,24
2016-12-22T07:03:59.060Z,28
2016-12-22T07:04:58.441Z,28
2016-12-22T07:05:59.411Z,32
2016-12-22T07:06:59.093Z,32
2016-12-22T07:07:59.131Z,32
2016-12-22T07:08:59.120Z,36
2016-12-22T07:09:58.809Z,40
2016-12-22T07:10:58.835Z,40
2016-12-22T07:11:58.848Z,40
2016-12-22T07:12:59.160Z,44
2016-12-22T07:13:59.174Z,44
2016-12-22T07:14:58.548Z,48
2016-12-22T07:15:58.875Z,56
2016-12-22T07:16:58.888Z,56
2016-12-22T07:17:59.235Z,56
2016-12-22T07:18:58.920Z,56
2016-12-22T07:19:59.236Z,60
2016-12-22T07:20:58.925Z,64
2016-12-22T07:21:59.253Z,68
2016-12-22T07:22:58.957Z,72
2016-12-22T07:23:58.957Z,72
2016-12-22T07:24:58.969Z,64
2016-12-22T07:25:58.982Z,68
2016-12-22T07:26:59.312Z,68
2016-12-22T07:27:59.033Z,68
2016-12-22T07:28:59.329Z,64
2016-12-22T07:29:59.336Z,68
2016-12-22T07:30:59.034Z,68
2016-12-22T07:31:59.047Z,72
2016-12-22T07:32:59.057Z,72
2016-12-22T07:33:59.071Z,72
2016-12-22T07:34:58.763Z,72
2016-12-22T07:35:58.768Z,68
2016-12-22T07:36:59.420Z,68
2016-12-22T07:37:59.426Z,76
2016-12-22T07:38:59.120Z,76
2016-12-22T07:39:59.134Z,84
2016-12-22T07:40:59.140Z,88
2016-12-22T07:41:59.153Z,88
2016-12-22T07:42:59.488Z,92
2016-12-22T07:43:59.192Z,104
2016-12-22T07:44:58.868Z,108
2016-12-22T07:45:59.297Z,112
2016-12-22T07:46:59.522Z,124
2016-12-22T07:47:59.219Z,124
2016-12-22T07:48:59.222Z,124
2016-12-22T07:49:59.240Z,136
2016-12-22T07:50:59.882Z,140
2016-12-22T07:51:59.578Z,144
2016-12-22T07:52:58.975Z,140
2016-12-22T07:53:59.613Z,144
2016-12-22T07:54:59.297Z,144
2016-12-22T07:55:59.626Z,140
2016-12-22T07:56:59.657Z,136
2016-12-22T07:57:59.325Z,132
2016-12-22T07:58:59.649Z,116
2016-12-22T07:59:59.984Z,124
2016-12-22T08:00:59.440Z,124
2016-12-22T08:01:59.059Z,132
2016-12-22T08:02:59.696Z,140
2016-12-22T08:03:59.392Z,140
2016-12-22T08:04:59.715Z,148
2016-12-22T08:05:59.096Z,144
2016-12-22T08:06:59.178Z,152
2016-12-22T08:08:00.057Z,148
2016-12-22T08:08:59.761Z,156
2016-12-22T08:09:59.171Z,164
2016-12-22T08:10:59.148Z,172
2016-12-22T08:11:59.794Z,196
2016-12-22T08:12:59.800Z,208
2016-12-22T08:13:59.830Z,212
2016-12-22T08:14:59.848Z,216
2016-12-22T08:15:59.516Z,224
2016-12-22T08:16:59.847Z,244
2016-12-22T08:17:59.853Z,272
2016-12-22T08:18:59.547Z,284
2016-12-22T08:19:59.561Z,280
2016-12-22T08:20:59.886Z,276
2016-12-22T08:21:59.914Z,312
2016-12-22T08:22:59.591Z,336
2016-12-22T08:23:59.924Z,384
2016-12-22T08:24:59.609Z,420
2016-12-22T08:25:59.312Z,416
2016-12-22T08:26:59.953Z,380
2016-12-22T08:27:59.964Z,356
2016-12-22T08:28:59.343Z,344
2016-12-22T08:30:00.306Z,344
2016-12-22T08:30:59.477Z,356
2016-12-22T08:31:59.687Z,380
2016-12-22T08:33:00.014Z,408
2016-12-22T08:34:00.037Z,396
2016-12-22T08:35:00.037Z,384
2016-12-22T08:36:00.141Z,384
2016-12-22T08:36:59.746Z,412
2016-12-22T08:38:00.074Z,472
2016-12-22T08:38:59.767Z,500
2016-12-22T08:40:00.126Z,556
2016-12-22T08:40:59.474Z,584
2016-12-22T08:42:00.434Z,588
2016-12-22T08:43:00.166Z,572
2016-12-22T08:44:00.140Z,628
2016-12-22T08:45:00.471Z,696
2016-12-22T08:46:00.161Z,736
2016-12-22T08:47:00.173Z,756
2016-12-22T08:47:59.867Z,728
2016-12-22T08:48:59.875Z,732
2016-12-22T08:50:00.231Z,752
2016-12-22T08:50:59.591Z,740
2016-12-22T08:52:00.550Z,652
2016-12-22T08:52:59.920Z,632
2016-12-22T08:54:00.566Z,704
2016-12-22T08:55:00.264Z,800
2016-12-22T08:55:59.962Z,896
2016-12-22T08:56:59.657Z,896
2016-12-22T08:58:00.294Z,808
2016-12-22T08:58:59.677Z,784
2016-12-22T08:59:59.695Z,872
2016-12-22T09:01:00.646Z,944
2016-12-22T09:01:59.708Z,956
2016-12-22T09:03:00.354Z,988
2016-12-22T09:04:00.060Z,904
2016-12-22T09:05:00.061Z,824
2016-12-22T09:06:00.072Z,788
2016-12-22T09:06:59.770Z,728
2016-12-22T09:08:00.105Z,672
2016-12-22T09:09:00.121Z,648
2016-12-22T09:10:00.121Z,668
2016-12-22T09:10:59.817Z,736
2016-12-22T09:12:00.456Z,832
2016-12-22T09:13:00.469Z,812
2016-12-22T09:14:00.172Z,780
2016-12-22T09:15:00.182Z,812
2016-12-22T09:16:00.818Z,848
2016-12-22T09:17:00.197Z,932
2016-12-22T09:22:00.100Z,2000
2016-12-22T09:22:27.025Z,1956
2016-12-22T09:23:26.715Z,1968
2016-12-22T09:24:27.059Z,2152
2016-12-22T09:25:26.736Z,2016
2016-12-22T09:26:26.749Z,1976
2016-12-22T09:27:26.766Z,1800
2016-12-22T09:28:26.772Z,1756
2016-12-22T09:29:26.478Z,2088
2016-12-22T09:30:27.436Z,2656
2016-12-22T09:31:27.125Z,3048
2016-12-22T09:32:27.449Z,3356
2016-12-22T09:33:26.844Z,3320
2016-12-22T09:34:27.166Z,2876
2016-12-22T09:35:27.192Z,2364
2016-12-22T09:36:27.191Z,2220
2016-12-22T09:37:26.583Z,3208
2016-12-22T09:38:26.904Z,4348
2016-12-22T09:39:26.599Z,4344
2016-12-22T09:40:27.249Z,3592
2016-12-22T09:41:26.623Z,3176
2016-12-22T09:42:27.601Z,3016
2016-12-22T09:43:26.659Z,2932
2016-12-22T09:44:26.667Z,2596
2016-12-22T09:45:27.001Z,2488
2016-12-22T09:46:27.009Z,2624
2016-12-22T09:47:27.047Z,2780
2016-12-22T09:48:27.360Z,2808
2016-12-22T09:49:27.368Z,2920
2016-12-22T09:50:27.276Z,3376
2016-12-22T09:51:27.402Z,4000
2016-12-22T09:52:27.100Z,4564
2016-12-22T09:53:27.113Z,4560
2016-12-22T09:54:26.813Z,4580
2016-12-22T09:55:27.457Z,3892
2016-12-22T09:56:27.484Z,2680
2016-12-22T09:57:27.818Z,2356
2016-12-22T09:58:27.508Z,2120
2016-12-22T09:59:27.204Z,1960
2016-12-22T10:00:27.541Z,1864
2016-12-22T10:01:26.918Z,1844
2016-12-22T10:02:27.881Z,2084
2016-12-22T10:03:27.898Z,2820
2016-12-22T10:04:27.610Z,2716
2016-12-22T10:05:27.924Z,2308
2016-12-22T10:06:27.311Z,2128
2016-12-22T10:07:27.640Z,1816
2016-12-22T10:08:27.656Z,1876
2016-12-22T10:09:27.360Z,1768
2016-12-22T10:10:27.687Z,1752
2016-12-22T10:11:27.705Z,1920
2016-12-22T10:12:27.398Z,2312
2016-12-22T10:13:27.732Z,2764
2016-12-22T10:14:27.748Z,2824
2016-12-22T10:15:27.446Z,2604
2016-12-22T10:16:27.783Z,2692
2016-12-22T10:17:27.484Z,2804
2016-12-22T10:18:27.182Z,2876
2016-12-22T10:19:28.157Z,2704
2016-12-22T10:20:27.843Z,2552
2016-12-22T10:21:27.864Z,2972
2016-12-22T10:22:27.895Z,3156
2016-12-22T10:23:27.903Z,2856
2016-12-22T10:24:28.222Z,2712
2016-12-22T10:25:27.292Z,2732
2016-12-22T10:26:27.957Z,2576
2016-12-22T10:27:27.340Z,2480
2016-12-22T10:28:28.289Z,2356
2016-12-22T10:29:27.989Z,2204
2016-12-22T10:30:28.321Z,2220
2016-12-22T10:31:27.390Z,2332
2016-12-22T10:32:27.720Z,2300
2016-12-22T10:33:28.075Z,2420
2016-12-22T10:34:27.753Z,2348
2016-12-22T10:35:28.088Z,2428
2016-12-22T10:36:27.783Z,2524
2016-12-22T10:37:28.126Z,2656
2016-12-22T10:38:27.822Z,2792
2016-12-22T10:39:27.521Z,2764
2016-12-22T10:40:28.177Z,2608
2016-12-22T10:41:28.200Z,2604
2016-12-22T10:42:27.566Z,2524
2016-12-22T10:43:27.951Z,2464
2016-12-22T10:44:28.240Z,2480
2016-12-22T10:45:28.590Z,2912
2016-12-22T10:46:28.266Z,3120
2016-12-22T10:47:28.280Z,3012
2016-12-22T10:48:27.684Z,2724
2016-12-22T10:49:28.632Z,2484
2016-12-22T10:50:28.328Z,2472
2016-12-22T10:51:27.721Z,2584
2016-12-22T10:52:28.363Z,2768
2016-12-22T10:53:28.064Z,2612
2016-12-22T10:54:28.394Z,2400
2016-12-22T10:55:28.190Z,1968
2016-12-22T10:56:28.429Z,1684
2016-12-22T10:57:28.447Z,1660
2016-12-22T10:58:28.147Z,1744
2016-12-22T10:59:28.796Z,1804
2016-12-22T11:00:28.520Z,1828
2016-12-22T11:01:28.200Z,1856
2016-12-22T11:02:28.845Z,1768
2016-12-22T11:03:28.860Z,1768
2016-12-22T11:04:28.240Z,1788
2016-12-22T11:05:29.092Z,1780
2016-12-22T11:06:28.589Z,1776
2016-12-22T11:07:28.607Z,1712
2016-12-22T11:08:28.624Z,1608
2016-12-22T11:09:28.320Z,1656
2016-12-22T11:10:28.657Z,1668
2016-12-22T11:11:28.356Z,1716
2016-12-22T11:12:28.688Z,1692
2016-12-22T11:13:28.481Z,1688
2016-12-22T11:14:28.722Z,1640
2016-12-22T11:15:28.106Z,1700
2016-12-22T11:16:28.121Z,1624
2016-12-22T11:17:28.459Z,1500
2016-12-22T11:18:28.472Z,1372
2016-12-22T11:19:28.487Z,1376
2016-12-22T11:20:28.821Z,1336
2016-12-22T11:21:28.520Z,1220
2016-12-22T11:22:29.170Z,1308
2016-12-22T11:23:29.186Z,1416
2016-12-22T11:24:28.898Z,1476
2016-12-22T11:25:28.903Z,1472
2016-12-22T11:26:28.920Z,1448
2016-12-22T11:27:28.937Z,1448
2016-12-22T11:28:28.638Z,1492
2016-12-22T11:29:28.652Z,1532
2016-12-22T11:30:28.985Z,1560
2016-12-22T11:31:29.393Z,1520
2016-12-22T11:32:29.019Z,1552
2016-12-22T11:33:29.058Z,1564
2016-12-22T11:34:29.048Z,1536
2016-12-22T11:35:29.072Z,1700
2016-12-22T11:36:28.795Z,1732
2016-12-22T11:37:29.103Z,1768
2016-12-22T11:38:29.118Z,1716
2016-12-22T11:39:28.817Z,1744
2016-12-22T11:40:29.194Z,1764
2016-12-22T11:41:28.868Z,1740
2016-12-22T11:42:29.193Z,1732
2016-12-22T11:43:29.203Z,1644
2016-12-22T11:44:28.902Z,1576
2016-12-22T11:45:29.551Z,1516
2016-12-22T11:46:28.618Z,1532
2016-12-22T11:47:28.976Z,1536
2016-12-22T11:48:28.676Z,1540
2016-12-22T11:49:28.985Z,1496
2016-12-22T11:50:29.323Z,1544
2016-12-22T11:51:29.016Z,1556
2016-12-22T11:52:29.355Z,1520
2016-12-22T11:53:29.062Z,1552
2016-12-22T11:54:28.755Z,1600
2016-12-22T11:55:29.407Z,1556
2016-12-22T11:56:29.420Z,1596
2016-12-22T11:57:29.117Z,1596
2016-12-22T11:58:29.141Z,1556
2016-12-22T11:59:28.841Z,1532
2016-12-22T12:00:29.170Z,1608
2016-12-22T12:01:29.187Z,1660
2016-12-22T12:02:29.205Z,1692
2016-12-22T12:03:29.220Z,1724
2016-12-22T12:04:29.577Z,1716
2016-12-22T12:05:29.259Z,1692
2016-12-22T12:06:28.959Z,1672
2016-12-22T12:07:29.336Z,1676
2016-12-22T12:08:29.624Z,1712
2016-12-22T12:09:29.324Z,1672
2016-12-22T12:10:29.653Z,1604
2016-12-22T12:11:29.359Z,1440
2016-12-22T12:12:29.691Z,1360
2016-12-22T12:13:29.394Z,1504
2016-12-22T12:14:29.096Z,1544
2016-12-22T12:15:29.742Z,1516
2016-12-22T12:16:29.761Z,1476
2016-12-22T12:17:29.817Z,1488
2016-12-22T12:18:29.797Z,1436
2016-12-22T12:19:29.506Z,1528
2016-12-22T12:20:29.517Z,1584
2016-12-22T12:21:29.219Z,1604
2016-12-22T12:22:29.242Z,1608
2016-12-22T12:23:29.889Z,1608
2016-12-22T12:24:29.630Z,1612
2016-12-22T12:25:29.301Z,1624
2016-12-22T12:26:29.337Z,1628
2016-12-22T12:27:29.641Z,1620
2016-12-22T12:28:29.653Z,1648
2016-12-22T12:29:29.984Z,1656
2016-12-22T12:30:30.011Z,1648
2016-12-22T12:31:30.026Z,1580
2016-12-22T12:32:29.731Z,1648
2016-12-22T12:33:30.063Z,1652
2016-12-22T12:34:30.074Z,1636
2016-12-22T12:35:30.094Z,1620
2016-12-22T12:36:30.116Z,1612
2016-12-22T12:37:30.130Z,1584
2016-12-22T12:38:30.471Z,1584
2016-12-22T12:39:30.480Z,1580
2016-12-22T12:40:30.493Z,1576
2016-12-22T12:41:30.521Z,1572
2016-12-22T12:42:30.225Z,1560
2016-12-22T12:43:30.237Z,1552
2016-12-22T12:44:29.940Z,1548
2016-12-22T12:45:30.271Z,1540
2016-12-22T12:46:30.285Z,1532
2016-12-22T12:47:29.992Z,1508
2016-12-22T12:48:30.326Z,1476
2016-12-22T12:49:30.027Z,1496
2016-12-22T12:50:30.358Z,1492
2016-12-22T12:51:30.694Z,1484
2016-12-22T12:52:30.084Z,1460
2016-12-22T12:53:29.781Z,1460
2016-12-22T12:54:30.448Z,1444
2016-12-22T12:55:30.142Z,1420
2016-12-22T12:56:30.149Z,1424
2016-12-22T12:57:29.858Z,1412
2016-12-22T12:58:30.501Z,1408
2016-12-22T12:59:30.207Z,1416
2016-12-22T13:00:30.223Z,1392
2016-12-22T13:01:30.240Z,1380
2016-12-22T13:02:30.253Z,1400
2016-12-22T13:03:30.279Z,1376
2016-12-22T13:04:30.936Z,1348
2016-12-22T13:05:30.648Z,1352
2016-12-22T13:06:30.664Z,1356
2016-12-22T13:07:30.365Z,1332
2016-12-22T13:08:30.682Z,1336
2016-12-22T13:09:30.080Z,1340
2016-12-22T13:10:30.721Z,1324
2016-12-22T13:11:30.420Z,1312
2016-12-22T13:12:30.458Z,1300
2016-12-22T13:13:30.471Z,1280
2016-12-22T13:14:30.789Z,1280
2016-12-22T13:15:31.137Z,1248
2016-12-22T13:16:30.205Z,1236
2016-12-22T13:17:30.533Z,1236
2016-12-22T13:18:31.184Z,1228
2016-12-22T13:19:30.884Z,1208
2016-12-22T13:20:30.584Z,1212
2016-12-22T13:21:30.627Z,1220
2016-12-22T13:22:30.940Z,1188
2016-12-22T13:23:30.642Z,1072
2016-12-22T13:24:31.014Z,1044
2016-12-22T13:25:30.695Z,1044
2016-12-22T13:26:30.414Z,1036
2016-12-22T13:27:31.031Z,1044
2016-12-22T13:28:34.105Z,1068
2016-12-22T13:29:33.798Z,1088
2016-12-22T13:30:33.256Z,1100
2016-12-22T13:31:33.340Z,1036
2016-12-22T13:32:32.886Z,908
2016-12-22T13:33:32.280Z,904
2016-12-22T13:34:31.412Z,952
2016-12-22T13:35:30.884Z,1036
2016-12-22T13:36:30.569Z,1072
2016-12-22T13:37:31.219Z,1068
2016-12-22T13:38:31.239Z,1068
2016-12-22T13:39:31.256Z,1060
2016-12-22T13:40:31.277Z,1048
2016-12-22T13:41:31.292Z,1036
2016-12-22T13:42:30.997Z,1028
2016-12-22T13:43:31.035Z,1016
2016-12-22T13:44:31.056Z,1004
2016-12-22T13:45:31.371Z,996
2016-12-22T13:46:31.403Z,980
2016-12-22T13:47:31.402Z,980
2016-12-22T13:48:31.836Z,968
2016-12-22T13:49:31.172Z,956
2016-12-22T13:50:31.148Z,920
2016-12-22T13:51:30.847Z,856
2016-12-22T13:52:31.179Z,840
2016-12-22T13:53:31.518Z,820
2016-12-22T13:54:31.547Z,756
2016-12-22T13:55:31.239Z,812
2016-12-22T13:56:31.579Z,812
2016-12-22T13:57:31.307Z,772
2016-12-22T13:58:31.607Z,748
2016-12-22T13:59:31.317Z,728
2016-12-22T14:00:31.647Z,732
2016-12-22T14:01:32.047Z,760
2016-12-22T14:02:31.387Z,796
2016-12-22T14:03:31.394Z,800
2016-12-22T14:04:31.725Z,788
2016-12-22T14:05:31.424Z,776
2016-12-22T14:06:31.768Z,768
2016-12-22T14:07:31.780Z,764
2016-12-22T14:08:32.108Z,740
2016-12-22T14:09:31.183Z,688
2016-12-22T14:10:31.833Z,628
2016-12-22T14:11:31.852Z,548
2016-12-22T14:12:31.871Z,552